Gorzow Wlkp, Poland
Current Conditions -  °F | °C
As of 9:00 AM on Friday 24 Oct 2014 (Local Time) from EPZG Reporting Station
Drizzle Drizzle  
Wind Chill: 34°   Ceiling: 200
Heat Index: 39°   Visibility: 0.93mi
Dew Point: 39°   Wind: 7mph
Humidity: 100%   Direction: 60°ENE
Pressure: 30.33"   Gusts: NA
Location:  52.75°N, 15.28°E
Report Text: EPZG 240700Z 06006KT 1500 -DZ BR OVC002 04/04 Q1027
Loading
Personal Weather Stations






























Interactive Weather Map
Tropical Storm Tracking
New forecast layout! Learn more

10-Day Weather Forecast

Advertisements
Track Severe Weather on mobile